createdAt,value
2018-04-16T00:00:30.506Z,0
2018-04-16T00:01:40.313Z,0
2018-04-16T00:02:50.384Z,0
2018-04-16T00:04:00.475Z,0
2018-04-16T00:05:10.572Z,0
2018-04-16T00:06:20.371Z,0
2018-04-16T00:07:30.470Z,0
2018-04-16T00:08:40.592Z,0
2018-04-16T00:09:50.691Z,0
2018-04-16T00:11:00.523Z,0
2018-04-16T00:12:10.335Z,0
2018-04-16T00:13:20.415Z,0
2018-04-16T00:14:30.504Z,0
2018-04-16T00:15:40.601Z,0
2018-04-16T00:16:50.693Z,0
2018-04-16T00:18:00.506Z,0
2018-04-16T00:19:10.596Z,0
2018-04-16T00:20:20.414Z,0
2018-04-16T00:21:30.500Z,0
2018-04-16T00:22:40.597Z,0
2018-04-16T00:23:50.694Z,0
2018-04-16T00:25:00.248Z,0
2018-04-16T00:26:10.340Z,0
2018-04-16T00:27:20.155Z,0
2018-04-16T00:28:29.993Z,0
2018-04-16T00:29:40.088Z,0
2018-04-16T00:30:50.171Z,0
2018-04-16T00:32:00.256Z,0
2018-04-16T00:33:10.685Z,0
2018-04-16T00:34:20.768Z,0
2018-04-16T00:35:30.872Z,0
2018-04-16T00:36:40.956Z,0
2018-04-16T00:37:51.049Z,0
2018-04-16T00:39:01.137Z,0
2018-04-16T00:40:11.433Z,0
2018-04-16T00:41:21.514Z,0
2018-04-16T00:42:31.600Z,0
2018-04-16T00:43:41.678Z,0
2018-04-16T00:44:51.752Z,0
2018-04-16T00:46:01.594Z,0
2018-04-16T00:47:11.667Z,0
2018-04-16T00:48:21.487Z,0
2018-04-16T00:49:31.576Z,0
2018-04-16T00:50:41.658Z,0
2018-04-16T00:51:51.503Z,0
2018-04-16T00:53:01.320Z,0
2018-04-16T00:54:11.431Z,0
2018-04-16T00:55:21.525Z,0
2018-04-16T00:56:31.366Z,0
2018-04-16T00:57:41.441Z,0
2018-04-16T00:58:51.531Z,0
2018-04-16T01:00:01.348Z,0
2018-04-16T01:01:11.172Z,0
2018-04-16T01:02:21.250Z,0
2018-04-16T01:03:31.337Z,0
2018-04-16T01:04:41.143Z,0
2018-04-16T01:05:50.965Z,0
2018-04-16T01:07:01.076Z,0
2018-04-16T01:08:10.899Z,0
2018-04-16T01:09:20.980Z,0
2018-04-16T01:10:31.055Z,0
2018-04-16T01:11:40.871Z,0
2018-04-16T01:12:50.998Z,0
2018-04-16T01:14:01.074Z,0
2018-04-16T01:15:11.163Z,0
2018-04-16T01:16:20.987Z,0
2018-04-16T01:17:30.807Z,0
2018-04-16T01:18:40.642Z,0
2018-04-16T01:19:50.733Z,0
2018-04-16T01:21:00.558Z,0
2018-04-16T01:22:10.637Z,0
2018-04-16T01:23:20.740Z,0
2018-04-16T01:24:30.313Z,0
2018-04-16T01:25:40.126Z,0
2018-04-16T01:26:50.199Z,0
2018-04-16T01:28:00.268Z,0
2018-04-16T01:29:10.335Z,0
2018-04-16T01:30:20.205Z,0
2018-04-16T01:31:30.307Z,0
2018-04-16T01:32:40.430Z,0
2018-04-16T01:33:50.252Z,0
2018-04-16T01:35:00.345Z,0
2018-04-16T01:36:09.892Z,0
2018-04-16T01:37:19.991Z,0
2018-04-16T01:38:29.819Z,0
2018-04-16T01:39:39.641Z,0
2018-04-16T01:40:49.453Z,0
2018-04-16T01:41:59.532Z,0
2018-04-16T01:43:09.347Z,0
2018-04-16T01:44:19.420Z,0
2018-04-16T01:45:29.499Z,0
2018-04-16T01:46:39.579Z,0
2018-04-16T01:47:49.669Z,0
2018-04-16T01:48:59.498Z,0
2018-04-16T01:50:09.574Z,0
2018-04-16T01:51:19.686Z,0
2018-04-16T01:52:29.239Z,0
2018-04-16T01:53:39.343Z,0
2018-04-16T01:54:49.162Z,0
2018-04-16T01:55:59.249Z,0
2018-04-16T01:57:09.348Z,0
2018-04-16T01:58:19.164Z,0
2018-04-16T01:59:29.259Z,0
2018-04-16T02:00:39.325Z,0
2018-04-16T02:01:49.404Z,0
2018-04-16T02:02:59.482Z,0
2018-04-16T02:04:09.609Z,0
2018-04-16T02:05:19.705Z,0
2018-04-16T02:06:29.598Z,0
2018-04-16T02:07:39.666Z,0
2018-04-16T02:08:49.743Z,0
2018-04-16T02:09:59.825Z,0
2018-04-16T02:11:09.958Z,0
2018-04-16T02:12:19.765Z,0
2018-04-16T02:13:29.567Z,0
2018-04-16T02:14:39.698Z,0
2018-04-16T02:15:49.771Z,0
2018-04-16T02:16:59.580Z,0
2018-04-16T02:18:09.678Z,0
2018-04-16T02:19:19.777Z,0
2018-04-16T02:20:29.859Z,0
2018-04-16T02:21:40.009Z,0
2018-04-16T02:22:49.566Z,0
2018-04-16T02:23:59.644Z,0
2018-04-16T02:25:09.706Z,0
2018-04-16T02:26:19.813Z,0
2018-04-16T02:27:29.911Z,0
2018-04-16T02:28:40.003Z,0
2018-04-16T02:29:50.081Z,0
2018-04-16T02:31:00.169Z,0
2018-04-16T02:32:10.251Z,0
2018-04-16T02:33:20.334Z,0
2018-04-16T02:34:30.441Z,0
2018-04-16T02:35:40.521Z,0
2018-04-16T02:36:50.343Z,0
2018-04-16T02:38:00.157Z,0
2018-04-16T02:39:10.244Z,0
2018-04-16T02:40:20.056Z,0
2018-04-16T02:41:30.175Z,0
2018-04-16T02:42:40.275Z,0
2018-04-16T02:43:49.851Z,0
2018-04-16T02:44:59.938Z,0
2018-04-16T02:46:10.012Z,0
2018-04-16T02:47:20.121Z,0
2018-04-16T02:48:30.203Z,0
2018-04-16T02:49:40.322Z,0
2018-04-16T02:50:50.433Z,0
2018-04-16T02:51:59.988Z,0
2018-04-16T02:53:09.793Z,0
2018-04-16T02:54:19.874Z,0
2018-04-16T02:55:29.942Z,0
2018-04-16T02:56:40.028Z,0
2018-04-16T02:57:50.122Z,0
2018-04-16T02:58:59.955Z,0
2018-04-16T03:00:09.769Z,0
2018-04-16T03:01:19.856Z,0
2018-04-16T03:33:43.731Z,0
2018-04-16T03:34:53.547Z,0
2018-04-16T03:36:03.369Z,0
2018-04-16T03:37:13.447Z,0
2018-04-16T03:38:23.534Z,0
2018-04-16T03:39:33.654Z,0
2018-04-16T03:40:43.738Z,0
2018-04-16T03:41:53.823Z,0
2018-04-16T03:43:03.907Z,0
2018-04-16T03:44:13.730Z,0
2018-04-16T03:45:23.603Z,0
2018-04-16T03:46:33.426Z,0
2018-04-16T03:47:43.235Z,0
2018-04-16T03:48:53.043Z,0
2018-04-16T03:50:03.124Z,0
2018-04-16T03:51:13.211Z,0
2018-04-16T03:52:23.030Z,0
2018-04-16T03:53:33.105Z,0
2018-04-16T03:54:43.230Z,0
2018-04-16T03:55:53.049Z,0
2018-04-16T03:57:03.131Z,0
2018-04-16T03:58:13.203Z,0
2018-04-16T03:59:23.027Z,0
2018-04-16T04:00:32.834Z,0
2018-04-16T04:01:42.914Z,0
2018-04-16T04:02:52.731Z,0
2018-04-16T04:04:02.827Z,0
2018-04-16T04:05:12.915Z,0
2018-04-16T04:06:22.722Z,0
2018-04-16T04:07:32.822Z,0
2018-04-16T04:08:42.914Z,0
2018-04-16T04:09:52.989Z,0
2018-04-16T04:11:03.080Z,0
2018-04-16T04:12:13.165Z,0
2018-04-16T04:13:23.257Z,0
2018-04-16T04:14:33.080Z,0
2018-04-16T04:15:43.167Z,0
2018-04-16T04:16:52.991Z,0
2018-04-16T04:18:03.099Z,5
2018-04-16T04:19:13.206Z,5
2018-04-16T04:20:23.342Z,5
2018-04-16T04:21:33.440Z,5
2018-04-16T04:22:43.526Z,5
2018-04-16T04:23:53.327Z,5
2018-04-16T04:25:03.431Z,5
2018-04-16T04:26:13.609Z,5
2018-04-16T04:27:23.693Z,5
2018-04-16T04:28:33.518Z,5
2018-04-16T04:29:43.625Z,5
2018-04-16T04:30:53.706Z,5
2018-04-16T04:32:03.791Z,5
2018-04-16T04:33:13.884Z,10
2018-04-16T04:34:23.956Z,10
2018-04-16T04:35:34.035Z,10
2018-04-16T04:36:44.119Z,10
2018-04-16T04:37:54.245Z,10
2018-04-16T04:39:04.339Z,15
2018-04-16T04:40:14.164Z,15
2018-04-16T04:41:24.240Z,15
2018-04-16T04:42:34.051Z,15
2018-04-16T04:43:43.869Z,15
2018-04-16T04:44:53.955Z,15
2018-04-16T04:46:04.038Z,15
2018-04-16T04:47:14.138Z,15
2018-04-16T04:48:24.206Z,15
2018-04-16T04:49:34.072Z,15
2018-04-16T04:50:43.913Z,15
2018-04-16T04:51:53.727Z,15
2018-04-16T04:53:03.789Z,15
2018-04-16T04:54:13.882Z,15
2018-04-16T04:55:23.858Z,15
2018-04-16T04:56:33.952Z,15
2018-04-16T04:57:44.070Z,15
2018-04-16T04:58:53.896Z,15
2018-04-16T05:00:03.994Z,15
2018-04-16T05:01:13.607Z,15
2018-04-16T05:02:23.419Z,15
2018-04-16T05:03:33.516Z,15
2018-04-16T05:04:43.603Z,15
2018-04-16T05:05:53.439Z,20
2018-04-16T05:07:03.527Z,20
2018-04-16T05:08:13.623Z,20
2018-04-16T05:09:23.448Z,20
2018-04-16T05:10:33.552Z,20
2018-04-16T05:11:43.383Z,25
2018-04-16T05:12:53.211Z,25
2018-04-16T05:14:03.036Z,25
2018-04-16T05:15:13.119Z,25
2018-04-16T05:16:23.217Z,25
2018-04-16T05:17:33.296Z,20
2018-04-16T05:18:43.439Z,20
2018-04-16T05:19:53.513Z,20
2018-04-16T05:21:03.363Z,15
2018-04-16T05:22:13.449Z,15
2018-04-16T05:23:23.522Z,15
2018-04-16T05:24:33.613Z,15
2018-04-16T05:25:43.701Z,15
2018-04-16T05:26:53.837Z,10
2018-04-16T05:28:03.652Z,10
2018-04-16T05:29:13.709Z,10
2018-04-16T05:30:23.270Z,10
2018-04-16T05:31:33.353Z,10
2018-04-16T05:32:43.591Z,10
2018-04-16T05:33:53.405Z,10
2018-04-16T05:35:03.494Z,15
2018-04-16T05:36:13.300Z,15
2018-04-16T05:37:23.380Z,15
2018-04-16T05:38:33.485Z,15
2018-04-16T05:39:43.559Z,15
2018-04-16T05:40:53.647Z,15
2018-04-16T05:42:03.765Z,15
2018-04-16T05:43:13.849Z,15
2018-04-16T05:44:23.747Z,15
2018-04-16T05:45:33.833Z,15
2018-04-16T05:46:43.921Z,20
2018-04-16T05:47:54.008Z,20
2018-04-16T05:49:03.824Z,20
2018-04-16T05:50:13.929Z,25
2018-04-16T05:51:24.030Z,25
2018-04-16T05:52:34.134Z,25
2018-04-16T05:53:44.217Z,30
2018-04-16T05:54:54.297Z,30
2018-04-16T05:56:04.379Z,30
2018-04-16T05:57:14.467Z,35
2018-04-16T05:58:24.549Z,40
2018-04-16T05:59:34.644Z,40
2018-04-16T06:00:44.736Z,45
2018-04-16T06:01:54.814Z,50
2018-04-16T06:03:04.893Z,55
2018-04-16T06:04:14.727Z,60
2018-04-16T06:05:24.804Z,60
2018-04-16T06:06:34.949Z,60
2018-04-16T06:07:45.059Z,60
2018-04-16T06:08:55.135Z,60
2018-04-16T06:10:05.266Z,65
2018-04-16T06:11:15.371Z,65
2018-04-16T06:12:25.191Z,65
2018-04-16T06:13:35.491Z,65
2018-04-16T06:14:45.584Z,65
2018-04-16T06:15:55.661Z,65
2018-04-16T06:17:05.742Z,65
2018-04-16T06:18:15.568Z,65
2018-04-16T06:19:25.673Z,70
2018-04-16T06:20:35.782Z,70
2018-04-16T06:21:45.858Z,75
2018-04-16T06:22:55.665Z,85
2018-04-16T06:24:05.483Z,95
2018-04-16T06:25:15.659Z,100
2018-04-16T06:26:25.748Z,105
2018-04-16T06:27:36.264Z,105
2018-04-16T06:28:46.344Z,105
2018-04-16T06:29:56.184Z,105
2018-04-16T06:31:06.001Z,110
2018-04-16T06:32:16.085Z,115
2018-04-16T06:33:26.178Z,115
2018-04-16T06:34:36.004Z,120
2018-04-16T06:35:46.093Z,120
2018-04-16T06:36:56.541Z,120
2018-04-16T06:38:06.382Z,120
2018-04-16T06:39:16.495Z,125
2018-04-16T06:40:26.584Z,125
2018-04-16T06:41:36.688Z,130
2018-04-16T06:42:46.871Z,130
2018-04-16T06:43:56.966Z,135
2018-04-16T06:45:06.545Z,135
2018-04-16T06:46:16.640Z,135
2018-04-16T06:47:26.474Z,135
2018-04-16T06:48:36.295Z,130
2018-04-16T06:49:46.396Z,130
2018-04-16T06:50:56.486Z,130
2018-04-16T06:52:06.590Z,140
2018-04-16T06:53:16.534Z,140
2018-04-16T06:54:26.397Z,140
2018-04-16T06:55:35.969Z,140
2018-04-16T06:56:46.120Z,140
2018-04-16T06:57:55.944Z,140
2018-04-16T06:59:06.026Z,135
2018-04-16T07:00:16.222Z,135
2018-04-16T07:01:26.377Z,135
2018-04-16T07:02:36.242Z,135
2018-04-16T07:03:46.095Z,130
2018-04-16T07:04:55.953Z,130
2018-04-16T07:06:35.113Z,135
2018-04-16T07:07:44.952Z,135
2018-04-16T07:08:54.775Z,135
2018-04-16T07:10:04.931Z,135
2018-04-16T07:11:29.706Z,135
2018-04-16T07:12:39.520Z,130
2018-04-16T07:13:49.591Z,130
2018-04-16T07:14:59.413Z,130
2018-04-16T07:16:09.234Z,135
2018-04-16T07:17:19.416Z,135
2018-04-16T07:18:29.262Z,135
2018-04-16T07:19:39.350Z,140
2018-04-16T07:20:49.437Z,145
2018-04-16T07:21:59.525Z,145
2018-04-16T07:23:09.679Z,145
2018-04-16T07:24:19.960Z,145
2018-04-16T07:25:30.061Z,150
2018-04-16T07:26:40.158Z,145
2018-04-16T07:27:50.249Z,140
2018-04-16T07:29:00.128Z,140
2018-04-16T07:30:09.945Z,140
2018-04-16T07:31:20.035Z,145
2018-04-16T07:32:30.109Z,145
2018-04-16T07:33:40.481Z,150
2018-04-16T07:35:05.310Z,150
2018-04-16T07:36:15.398Z,155
2018-04-16T07:37:25.485Z,160
2018-04-16T07:38:35.558Z,165
2018-04-16T07:39:45.654Z,170
2018-04-16T07:40:55.769Z,185
2018-04-16T07:42:05.590Z,190
2018-04-16T07:43:15.408Z,195
2018-04-16T07:44:25.525Z,200
2018-04-16T07:45:35.379Z,210
2018-04-16T07:46:45.241Z,215
2018-04-16T07:47:55.332Z,215
2018-04-16T07:49:05.576Z,220
2018-04-16T07:50:15.461Z,220
2018-04-16T07:51:25.281Z,215
2018-04-16T07:53:04.687Z,210
2018-04-16T07:54:14.513Z,205
2018-04-16T07:55:24.346Z,200
2018-04-16T07:56:34.424Z,195
2018-04-16T07:57:44.592Z,185
2018-04-16T07:58:54.147Z,175
2018-04-16T08:00:04.220Z,165
2018-04-16T08:01:13.776Z,160
2018-04-16T08:02:23.877Z,155
2018-04-16T08:03:34.043Z,150
2018-04-16T08:04:44.152Z,145
2018-04-16T08:05:54.451Z,140
2018-04-16T08:07:04.564Z,140
2018-04-16T08:08:14.684Z,140
2018-04-16T08:09:24.852Z,135
2018-04-16T08:10:34.958Z,135
2018-04-16T08:11:45.064Z,135
2018-04-16T08:12:55.136Z,130
2018-04-16T08:14:05.270Z,135
2018-04-16T08:15:15.005Z,135
2018-04-16T08:16:25.106Z,135
2018-04-16T08:17:35.394Z,135
2018-04-16T08:18:45.513Z,130
2018-04-16T08:19:55.601Z,130
2018-04-16T08:21:05.415Z,130
2018-04-16T08:22:15.291Z,125
2018-04-16T08:23:25.479Z,115
2018-04-16T08:24:35.577Z,105
2018-04-16T08:25:46.734Z,100
2018-04-16T08:26:56.819Z,90
2018-04-16T08:28:07.176Z,85
2018-04-16T08:29:16.985Z,85
2018-04-16T08:30:27.098Z,85
2018-04-16T08:32:21.139Z,90
2018-04-16T08:33:31.259Z,90
2018-04-16T08:34:41.235Z,95
2018-04-16T08:35:51.109Z,100
2018-04-16T08:37:01.199Z,100
2018-04-16T08:38:20.927Z,105
2018-04-16T08:39:30.797Z,110
2018-04-16T08:40:41.311Z,110
2018-04-16T08:41:52.128Z,115
2018-04-16T08:43:02.679Z,115
2018-04-16T08:44:12.500Z,115
2018-04-16T08:45:22.612Z,115
2018-04-16T08:46:47.413Z,120
2018-04-16T08:47:57.497Z,120
2018-04-16T08:49:07.332Z,120
2018-04-16T08:50:17.161Z,120
2018-04-16T08:51:27.262Z,120
2018-04-16T08:52:37.590Z,120
2018-04-16T08:53:47.684Z,120
2018-04-16T08:54:57.528Z,120
2018-04-16T08:56:07.646Z,125
2018-04-16T08:57:17.471Z,125
2018-04-16T08:58:27.380Z,130
2018-04-16T08:59:37.547Z,130
2018-04-16T09:00:47.433Z,135
2018-04-16T09:01:57.533Z,140
2018-04-16T09:03:07.672Z,140
2018-04-16T09:04:17.781Z,145
2018-04-16T09:05:27.895Z,145
2018-04-16T09:06:38.014Z,145
2018-04-16T09:07:48.128Z,145
2018-04-16T09:08:58.148Z,145
2018-04-16T09:10:08.272Z,145
2018-04-16T09:11:18.372Z,145
2018-04-16T09:12:28.474Z,145
2018-04-16T09:13:38.357Z,145
2018-04-16T09:14:48.443Z,145
2018-04-16T09:15:58.549Z,145
2018-04-16T09:17:08.663Z,150
2018-04-16T09:18:18.503Z,155
2018-04-16T09:19:28.638Z,160
2018-04-16T09:20:38.518Z,160
2018-04-16T09:21:48.609Z,170
2018-04-16T09:22:58.737Z,175
2018-04-16T09:24:08.842Z,180
2018-04-16T09:25:18.944Z,180
2018-04-16T09:26:29.091Z,185
2018-04-16T09:27:39.415Z,185
2018-04-16T09:28:49.256Z,185
2018-04-16T09:29:59.360Z,190
2018-04-16T09:31:09.463Z,190
2018-04-16T09:32:19.526Z,190
2018-04-16T09:33:29.596Z,195
2018-04-16T09:34:39.692Z,205
2018-04-16T09:35:49.778Z,205
2018-04-16T09:36:59.868Z,205
2018-04-16T09:38:10.126Z,215
2018-04-16T09:39:20.265Z,215
2018-04-16T09:40:30.351Z,215
2018-04-16T09:41:40.452Z,220
2018-04-16T09:42:50.539Z,230
2018-04-16T09:44:00.632Z,225
2018-04-16T09:45:10.722Z,225
2018-04-16T09:46:20.824Z,225
2018-04-16T09:47:30.925Z,230
2018-04-16T09:48:41.020Z,230
2018-04-16T09:49:51.161Z,230
2018-04-16T09:51:00.999Z,230
2018-04-16T09:52:11.111Z,230
2018-04-16T09:53:20.931Z,225
2018-04-16T09:54:31.007Z,225
2018-04-16T09:55:40.886Z,225
2018-04-16T09:56:50.983Z,225
2018-04-16T09:58:01.081Z,225
2018-04-16T09:59:11.177Z,230
2018-04-16T10:00:21.152Z,230
2018-04-16T10:01:31.265Z,230
2018-04-16T10:02:41.606Z,235
2018-04-16T10:03:51.454Z,240
2018-04-16T10:05:01.287Z,240
2018-04-16T10:06:11.485Z,245
2018-04-16T10:07:21.635Z,245
2018-04-16T10:08:31.721Z,245
2018-04-16T10:09:41.799Z,250
2018-04-16T10:10:51.928Z,255
2018-04-16T10:12:02.137Z,255
2018-04-16T10:13:12.230Z,255
2018-04-16T10:14:22.334Z,250
2018-04-16T10:15:32.459Z,245
2018-04-16T10:16:42.554Z,240
2018-04-16T10:17:52.651Z,230
2018-04-16T10:19:02.798Z,230
2018-04-16T10:20:12.619Z,230
2018-04-16T10:21:22.735Z,230
2018-04-16T10:22:32.860Z,230
2018-04-16T10:23:42.960Z,230
2018-04-16T10:24:53.057Z,230
2018-04-16T10:26:02.899Z,240
2018-04-16T10:27:12.998Z,245
2018-04-16T10:28:23.175Z,250
2018-04-16T10:29:33.265Z,245
2018-04-16T10:30:43.408Z,245
2018-04-16T10:31:53.500Z,240
2018-04-16T10:33:03.597Z,240
2018-04-16T10:34:13.874Z,250
2018-04-16T10:35:24.031Z,245
2018-04-16T10:36:34.145Z,250
2018-04-16T10:37:44.019Z,250
2018-04-16T10:38:53.867Z,255
2018-04-16T10:40:03.960Z,260
2018-04-16T10:41:13.969Z,260
2018-04-16T10:42:24.118Z,260
2018-04-16T10:43:34.214Z,260
2018-04-16T10:44:44.321Z,260
2018-04-16T10:45:54.514Z,255
2018-04-16T10:47:04.353Z,245
2018-04-16T10:48:14.453Z,240
2018-04-16T10:49:24.558Z,245
2018-04-16T10:50:34.671Z,245
2018-04-16T10:51:44.791Z,245
2018-04-16T10:52:54.892Z,245
2018-04-16T10:54:04.763Z,245
2018-04-16T10:55:14.322Z,245
2018-04-16T10:56:23.916Z,240
2018-04-16T10:57:34.053Z,240
2018-04-16T10:58:43.885Z,240
2018-04-16T10:59:54.503Z,240
2018-04-16T11:01:04.867Z,240
2018-04-16T11:02:15.083Z,245
2018-04-16T11:03:25.181Z,240
2018-04-16T11:04:35.269Z,235
2018-04-16T11:05:45.445Z,230
2018-04-16T11:06:55.533Z,235
2018-04-16T11:08:05.388Z,240
2018-04-16T11:09:15.223Z,240
2018-04-16T11:10:25.334Z,245
2018-04-16T11:11:35.443Z,245
2018-04-16T11:12:45.561Z,245
2018-04-16T11:13:55.650Z,250
2018-04-16T11:15:05.741Z,255
2018-04-16T11:16:15.586Z,255
2018-04-16T11:17:25.747Z,255
2018-04-16T11:18:35.857Z,260
2018-04-16T11:19:45.708Z,255
2018-04-16T11:20:55.806Z,255
2018-04-16T11:22:05.918Z,255
2018-04-16T11:23:15.798Z,255
2018-04-16T11:24:25.894Z,255
2018-04-16T11:25:35.977Z,255
2018-04-16T11:26:46.115Z,245
2018-04-16T11:27:55.974Z,240
2018-04-16T11:29:06.356Z,230
2018-04-16T11:30:16.507Z,225
2018-04-16T11:31:26.620Z,225
2018-04-16T11:32:36.722Z,225
2018-04-16T11:33:46.820Z,230
2018-04-16T11:34:56.917Z,230
2018-04-16T11:36:06.750Z,230
2018-04-16T11:37:16.875Z,225
2018-04-16T11:38:26.980Z,230
2018-04-16T11:39:37.071Z,240
2018-04-16T11:40:47.222Z,245
2018-04-16T11:41:57.333Z,245
2018-04-16T11:43:07.445Z,245
2018-04-16T11:44:17.564Z,250
2018-04-16T11:45:27.392Z,255
2018-04-16T11:46:37.518Z,260
2018-04-16T11:47:47.357Z,260
2018-04-16T11:48:57.449Z,260
2018-04-16T11:50:07.560Z,250
2018-04-16T11:51:17.391Z,245
2018-04-16T11:52:27.636Z,240
2018-04-16T11:53:37.480Z,235
2018-04-16T11:54:47.574Z,230
2018-04-16T11:55:57.697Z,225
2018-04-16T11:57:07.852Z,215
2018-04-16T11:58:18.001Z,195
2018-04-16T11:59:27.867Z,190
2018-04-16T12:00:37.971Z,185
2018-04-16T12:01:47.535Z,185
2018-04-16T12:02:57.632Z,190
2018-04-16T12:04:07.518Z,190
2018-04-16T12:05:17.626Z,190
2018-04-16T12:06:27.756Z,185
2018-04-16T12:07:37.874Z,185
2018-04-16T12:08:47.999Z,185
2018-04-16T12:09:57.888Z,185
2018-04-16T12:11:07.988Z,190
2018-04-16T12:12:18.336Z,190
2018-04-16T12:13:28.514Z,195
2018-04-16T12:14:38.647Z,195
2018-04-16T12:15:48.815Z,195
2018-04-16T12:16:58.658Z,190
2018-04-16T12:18:08.750Z,180
2018-04-16T12:19:18.629Z,170
2018-04-16T12:20:28.780Z,160
2018-04-16T12:21:38.865Z,160
2018-04-16T12:22:48.993Z,160
2018-04-16T12:23:59.146Z,165
2018-04-16T12:25:09.251Z,165
2018-04-16T12:26:19.395Z,160
2018-04-16T12:27:29.595Z,155
2018-04-16T12:28:39.766Z,145
2018-04-16T12:29:49.655Z,140
2018-04-16T12:30:59.826Z,135
2018-04-16T12:32:09.711Z,130
2018-04-16T12:33:19.595Z,130
2018-04-16T12:34:29.700Z,130
2018-04-16T12:35:39.788Z,135
2018-04-16T12:36:49.661Z,130
2018-04-16T12:37:59.803Z,130
2018-04-16T12:39:10.131Z,125
2018-04-16T12:40:20.263Z,125
2018-04-16T12:41:29.830Z,120
2018-04-16T12:42:39.955Z,115
2018-04-16T12:43:50.062Z,115
2018-04-16T12:45:00.169Z,110
2018-04-16T12:46:10.264Z,110
2018-04-16T12:47:20.357Z,110
2018-04-16T12:48:30.487Z,110
2018-04-16T12:49:40.651Z,115
2018-04-16T12:50:50.795Z,115
2018-04-16T12:52:00.635Z,115
2018-04-16T12:53:10.750Z,115
2018-04-16T12:54:20.315Z,115
2018-04-16T12:55:30.405Z,120
2018-04-16T12:56:40.496Z,120
2018-04-16T12:57:50.587Z,120
2018-04-16T12:59:00.676Z,120
2018-04-16T13:00:10.780Z,120
2018-04-16T13:01:20.884Z,115
2018-04-16T13:02:31.074Z,120
2018-04-16T13:03:40.893Z,120
2018-04-16T13:04:50.972Z,125
2018-04-16T13:06:01.051Z,125
2018-04-16T13:07:11.171Z,125
2018-04-16T13:08:21.299Z,120
2018-04-16T13:09:31.413Z,115
2018-04-16T13:10:41.234Z,110
2018-04-16T13:11:50.809Z,110
2018-04-16T13:13:00.909Z,110
2018-04-16T13:14:11.055Z,115
2018-04-16T13:15:21.157Z,115
2018-04-16T13:16:30.992Z,120
2018-04-16T13:17:40.817Z,125
2018-04-16T13:18:50.926Z,130
2018-04-16T13:20:01.015Z,130
2018-04-16T13:21:11.131Z,130
2018-04-16T13:22:21.218Z,135
2018-04-16T13:23:31.297Z,135
2018-04-16T13:24:41.441Z,135
2018-04-16T13:25:51.308Z,135
2018-04-16T13:27:01.381Z,135
2018-04-16T13:28:11.459Z,140
2018-04-16T13:29:21.289Z,135
2018-04-16T13:30:31.377Z,140
2018-04-16T13:31:41.488Z,135
2018-04-16T13:32:51.320Z,140
2018-04-16T13:34:01.140Z,145
2018-04-16T13:35:11.228Z,150
2018-04-16T13:36:21.318Z,160
2018-04-16T13:37:31.443Z,160
2018-04-16T13:38:41.533Z,155
2018-04-16T13:39:51.626Z,155
2018-04-16T13:41:01.706Z,155
2018-04-16T13:42:11.557Z,150
2018-04-16T13:43:21.473Z,145
2018-04-16T13:44:31.304Z,145
2018-04-16T13:45:41.135Z,145
2018-04-16T13:46:51.221Z,145
2018-04-16T13:48:01.395Z,145
2018-04-16T13:49:11.480Z,145
2018-04-16T13:50:21.580Z,140
2018-04-16T13:51:31.682Z,130
2018-04-16T13:52:41.766Z,130
2018-04-16T13:53:51.835Z,120
2018-04-16T13:55:01.652Z,120
2018-04-16T13:56:11.735Z,120
2018-04-16T13:57:21.561Z,120
2018-04-16T13:58:31.635Z,120
2018-04-16T13:59:41.491Z,120
2018-04-16T14:00:51.308Z,115
2018-04-16T14:02:01.421Z,110
2018-04-16T14:03:11.506Z,100
2018-04-16T14:04:21.596Z,100
2018-04-16T14:05:31.694Z,95
2018-04-16T14:06:41.801Z,95
2018-04-16T14:07:51.874Z,90
2018-04-16T14:09:01.964Z,90
2018-04-16T14:10:12.057Z,95
2018-04-16T14:11:21.883Z,95
2018-04-16T14:12:32.055Z,90
2018-04-16T14:13:41.658Z,90
2018-04-16T14:14:51.835Z,95
2018-04-16T14:16:01.652Z,95
2018-04-16T14:17:11.737Z,95
2018-04-16T14:18:21.822Z,95
2018-04-16T14:19:31.930Z,95
2018-04-16T14:20:42.014Z,100
2018-04-16T14:21:51.843Z,95
2018-04-16T14:23:01.949Z,85
2018-04-16T14:24:11.776Z,80
2018-04-16T14:25:21.596Z,75
2018-04-16T14:26:31.414Z,70
2018-04-16T14:27:41.527Z,70
2018-04-16T14:28:51.620Z,65
2018-04-16T14:30:01.718Z,65
2018-04-16T14:31:11.798Z,65
2018-04-16T14:32:21.345Z,60
2018-04-16T14:33:31.427Z,60
2018-04-16T14:34:41.531Z,60
2018-04-16T14:35:51.445Z,60
2018-04-16T14:37:01.251Z,60
2018-04-16T14:38:11.069Z,65
2018-04-16T14:39:20.905Z,65
2018-04-16T14:40:30.995Z,65
2018-04-16T14:41:41.100Z,60
2018-04-16T14:42:51.170Z,55
2018-04-16T14:44:01.001Z,55
2018-04-16T14:45:11.091Z,50
2018-04-16T14:46:20.902Z,45
2018-04-16T14:47:30.992Z,45
2018-04-16T14:48:41.081Z,45
2018-04-16T14:49:51.177Z,45
2018-04-16T14:51:01.007Z,45
2018-04-16T14:52:11.093Z,45
2018-04-16T14:53:21.216Z,45
2018-04-16T14:54:31.298Z,50
2018-04-16T14:55:41.144Z,55
2018-04-16T14:56:51.211Z,55
2018-04-16T14:58:01.298Z,55
2018-04-16T14:59:11.489Z,55
2018-04-16T15:00:21.582Z,50
2018-04-16T15:01:31.428Z,50
2018-04-16T15:02:40.733Z,45
2018-04-16T15:03:50.831Z,45
2018-04-16T15:05:00.972Z,45
2018-04-16T15:06:11.051Z,40
2018-04-16T15:07:21.140Z,40
2018-04-16T15:08:31.246Z,35
2018-04-16T15:09:41.361Z,35
2018-04-16T15:10:50.915Z,35
2018-04-16T15:12:00.739Z,35
2018-04-16T15:13:10.850Z,35
2018-04-16T15:14:20.693Z,35
2018-04-16T15:15:30.794Z,35
2018-04-16T15:16:40.662Z,35
2018-04-16T15:17:50.247Z,35
2018-04-16T15:19:00.331Z,35
2018-04-16T15:20:10.409Z,35
2018-04-16T15:21:20.218Z,35
2018-04-16T15:22:30.099Z,30
2018-04-16T15:23:40.184Z,30
2018-04-16T15:24:50.249Z,30
2018-04-16T15:26:00.486Z,30
2018-04-16T15:27:10.577Z,25
2018-04-16T15:28:20.747Z,25
2018-04-16T15:29:30.595Z,25
2018-04-16T15:30:40.429Z,25
2018-04-16T15:31:50.242Z,20
2018-04-16T15:33:00.357Z,20
2018-04-16T15:34:10.507Z,20
2018-04-16T15:35:20.350Z,20
2018-04-16T15:36:30.443Z,15
2018-04-16T15:37:40.521Z,15
2018-04-16T15:38:50.617Z,15
2018-04-16T15:40:00.743Z,15
2018-04-16T15:41:10.575Z,15
2018-04-16T15:42:20.701Z,15
2018-04-16T15:43:30.788Z,15
2018-04-16T15:44:40.597Z,15
2018-04-16T15:45:50.703Z,15
2018-04-16T15:47:00.545Z,20
2018-04-16T15:48:10.646Z,20
2018-04-16T15:49:20.483Z,20
2018-04-16T15:50:30.067Z,20
2018-04-16T15:51:40.202Z,20
2018-04-16T15:52:50.303Z,20
2018-04-16T15:54:00.397Z,20
2018-04-16T15:55:10.491Z,20
2018-04-16T15:56:20.592Z,25
2018-04-16T15:57:30.736Z,25
2018-04-16T15:58:40.837Z,25
2018-04-16T15:59:50.938Z,25
2018-04-16T16:01:00.771Z,30
2018-04-16T16:02:10.621Z,30
2018-04-16T16:03:20.730Z,25
2018-04-16T16:04:30.971Z,25
2018-04-16T16:05:41.084Z,20
2018-04-16T16:06:50.907Z,20
2018-04-16T16:08:00.746Z,15
2018-04-16T16:09:10.839Z,15
2018-04-16T16:10:20.944Z,15
2018-04-16T16:11:31.041Z,15
2018-04-16T16:12:41.143Z,15
2018-04-16T16:13:51.247Z,15
2018-04-16T16:15:01.379Z,15
2018-04-16T16:16:10.955Z,15
2018-04-16T16:17:21.070Z,15
2018-04-16T16:18:31.179Z,10
2018-04-16T16:19:41.275Z,10
2018-04-16T16:20:51.609Z,10
2018-04-16T16:22:01.699Z,10
2018-04-16T16:23:11.829Z,10
2018-04-16T16:24:21.940Z,10
2018-04-16T16:25:32.045Z,10
2018-04-16T16:26:42.190Z,10
2018-04-16T16:27:52.039Z,10
2018-04-16T16:29:01.896Z,10
2018-04-16T16:30:12.013Z,10
2018-04-16T16:31:22.119Z,10
2018-04-16T16:32:32.269Z,10
2018-04-16T16:33:42.365Z,10
2018-04-16T16:34:52.518Z,10
2018-04-16T16:36:02.403Z,10
2018-04-16T16:37:12.578Z,10
2018-04-16T16:38:22.503Z,10
2018-04-16T16:39:32.655Z,10
2018-04-16T16:40:42.818Z,10
2018-04-16T16:41:52.965Z,10
2018-04-16T16:43:02.829Z,10
2018-04-16T16:44:12.961Z,10
2018-04-16T16:45:23.083Z,10
2018-04-16T16:46:33.099Z,10
2018-04-16T16:47:43.291Z,10
2018-04-16T16:48:53.414Z,10
2018-04-16T16:50:03.550Z,10
2018-04-16T16:51:13.633Z,10
2018-04-16T16:52:23.725Z,10
2018-04-16T16:53:33.845Z,10
2018-04-16T16:54:43.931Z,10
2018-04-16T16:55:54.044Z,10
2018-04-16T16:57:04.143Z,10
2018-04-16T16:58:14.294Z,10
2018-04-16T16:59:24.393Z,10
2018-04-16T17:00:34.501Z,10
2018-04-16T17:01:44.623Z,10
2018-04-16T17:02:54.457Z,10
2018-04-16T17:04:04.565Z,10
2018-04-16T17:05:14.659Z,10